Time;durP1;ratioP1;P1;durP2;ratioP2;P2;SDS_P1;SDS_P2;PMS_P1;PMS_P2;Temp;Humidity;BMP_temperature;BMP_pressure;BME280_temperature;BME280_humidity;BME280_pressure;Samples;Min_cycle;Max_cycle;Signal;HPM_P1;HPM_P2
2022/01/08 00:00:20;;;;;;;1.90;1.33;;;3.30;80.30;;;;;;4949554;28;20447;-76
2022/01/08 00:02:48;;;;;;;1.67;1.40;;;3.30;80.50;;;;;;4952654;28;20430;-78
2022/01/08 00:05:14;;;;;;;2.42;1.45;;;3.30;80.20;;;;;;4950369;28;20444;-75
2022/01/08 00:07:40;;;;;;;3.40;1.20;;;3.30;80.00;;;;;;4948939;29;20647;-75
2022/01/08 00:10:07;;;;;;;3.07;1.80;;;3.30;80.20;;;;;;4950586;29;20199;-78
2022/01/08 00:12:33;;;;;;;4.00;1.67;;;3.30;80.20;;;;;;4952175;28;20781;-77
2022/01/08 00:14:58;;;;;;;2.00;1.23;;;3.40;80.20;;;;;;4951346;28;20817;-76
2022/01/08 00:17:24;;;;;;;2.07;1.30;;;3.40;80.20;;;;;;4954113;28;20503;-76
2022/01/08 00:19:51;;;;;;;2.00;1.50;;;3.40;80.30;;;;;;4953707;28;20223;-75
2022/01/08 00:22:17;;;;;;;2.70;1.70;;;3.50;79.30;;;;;;4953417;29;20223;-75
2022/01/08 00:24:44;;;;;;;3.00;1.50;;;3.50;79.00;;;;;;4953906;28;20450;-75
2022/01/08 00:27:09;;;;;;;2.73;1.60;;;3.50;79.00;;;;;;4956013;28;21034;-75
2022/01/08 00:29:35;;;;;;;4.00;1.87;;;3.50;79.00;;;;;;4951003;28;20423;-74
2022/01/08 00:32:01;;;;;;;3.00;1.70;;;3.60;78.90;;;;;;4951755;29;20419;-74
2022/01/08 00:34:27;;;;;;;4.03;2.27;;;3.60;78.40;;;;;;4950666;28;20212;-75
2022/01/08 00:36:53;;;;;;;4.50;2.00;;;3.60;78.70;;;;;;4955306;28;20654;-75
2022/01/08 00:39:19;;;;;;;3.50;1.80;;;3.60;78.90;;;;;;4960914;28;20436;-75
2022/01/08 00:41:45;;;;;;;3.73;2.37;;;3.60;79.00;;;;;;4952030;28;20192;-75
2022/01/08 00:44:10;;;;;;;4.03;2.30;;;3.60;79.50;;;;;;4949132;29;20295;-74
2022/01/08 00:46:36;;;;;;;3.10;2.50;;;3.50;79.60;;;;;;4949118;29;20238;-76
2022/01/08 00:49:03;;;;;;;2.70;2.20;;;3.60;79.50;;;;;;4951018;29;20222;-74
2022/01/08 00:51:28;;;;;;;3.43;2.10;;;3.50;79.90;;;;;;4951561;28;20556;-75
2022/01/08 00:53:54;;;;;;;3.50;2.30;;;3.40;80.00;;;;;;4957969;28;20440;-75
2022/01/08 00:56:20;;;;;;;4.20;2.37;;;3.40;80.50;;;;;;4952784;28;20191;-75
2022/01/08 00:58:46;;;;;;;3.07;2.10;;;3.40;80.60;;;;;;4950641;29;20338;-75
2022/01/08 01:01:11;;;;;;;4.53;2.87;;;3.40;80.60;;;;;;4950574;28;20271;-75
2022/01/08 01:03:37;;;;;;;4.17;2.50;;;3.40;80.60;;;;;;4949112;29;20303;-75
2022/01/08 01:06:06;;;;;;;3.23;2.70;;;3.40;80.90;;;;;;4954490;28;20191;-75
2022/01/08 01:08:32;;;;;;;5.50;2.37;;;3.40;80.80;;;;;;4951479;28;20667;-75
2022/01/08 01:10:58;;;;;;;8.80;2.45;;;3.40;81.10;;;;;;4956700;28;20430;-75
2022/01/08 01:13:24;;;;;;;5.07;2.93;;;3.30;81.40;;;;;;4950909;28;20188;-75
2022/01/08 01:15:50;;;;;;;4.23;2.67;;;3.40;81.50;;;;;;4961197;28;20215;-77
2022/01/08 01:18:16;;;;;;;5.88;3.00;;;3.40;81.40;;;;;;4960205;28;20255;-74
2022/01/08 01:20:42;;;;;;;5.07;2.50;;;3.30;81.90;;;;;;4957753;28;20187;-74
2022/01/08 01:23:19;;;;;;;2.97;2.03;;;3.30;81.90;;;;;;4959311;28;20191;-75
2022/01/08 01:25:52;;;;;;;2.63;2.03;;;3.40;81.70;;;;;;4952531;29;20494;-75
2022/01/08 01:47:17;;;;;;;4.73;2.77;;;3.40;82.20;;;;;;4954599;28;20235;-74
2022/01/08 01:49:47;;;;;;;2.77;2.47;;;3.40;82.40;;;;;;4962467;28;20494;-73
2022/01/08 01:52:16;;;;;;;5.23;2.90;;;3.40;82.50;;;;;;4960149;28;20429;-73
2022/01/08 01:54:43;;;;;;;7.20;3.07;;;3.30;82.40;;;;;;4965765;28;20462;-74
2022/01/08 01:57:10;;;;;;;3.42;2.80;;;3.30;82.50;;;;;;4961645;28;20447;-74
2022/01/08 01:59:37;;;;;;;4.25;2.50;;;3.40;82.50;;;;;;4955399;28;20180;-74
2022/01/08 02:02:04;;;;;;;6.18;2.83;;;3.40;82.50;;;;;;4962649;28;20284;-74
2022/01/08 02:04:30;;;;;;;3.85;1.90;;;3.40;82.70;;;;;;4958435;28;20294;-76
2022/01/08 02:06:55;;;;;;;5.50;2.50;;;3.40;82.80;;;;;;4952978;28;20222;-74
2022/01/08 02:09:21;;;;;;;2.47;2.13;;;3.40;82.80;;;;;;4960924;28;20242;-74
2022/01/08 02:12:02;;;;;;;4.70;2.40;;;3.40;82.80;;;;;;4961346;28;20208;-74
2022/01/08 02:14:30;;;;;;;2.83;2.23;;;3.40;82.80;;;;;;4952123;29;20298;-75
2022/01/08 02:16:57;;;;;;;3.10;2.33;;;3.40;82.70;;;;;;4960765;28;20454;-74
2022/01/08 02:19:23;;;;;;;6.33;2.60;;;3.40;82.80;;;;;;4954841;28;20493;-74
2022/01/08 02:21:51;;;;;;;3.37;2.03;;;3.60;82.50;;;;;;4954712;28;20423;-75
2022/01/08 02:24:17;;;;;;;2.90;1.60;;;3.50;82.20;;;;;;4959843;28;20487;-75
2022/01/08 02:26:43;;;;;;;2.67;2.00;;;3.50;82.40;;;;;;4954229;28;20459;-75
2022/01/08 02:29:13;;;;;;;3.07;2.40;;;3.60;82.50;;;;;;4958751;28;21015;-75
2022/01/08 02:31:39;;;;;;;2.28;1.75;;;3.60;82.70;;;;;;4956249;28;20195;-76
2022/01/08 02:34:06;;;;;;;4.03;2.10;;;3.60;83.00;;;;;;4954646;29;20206;-74
2022/01/08 02:36:33;;;;;;;5.77;1.60;;;3.70;83.30;;;;;;4961590;28;20734;-74
2022/01/08 02:38:58;;;;;;;3.50;1.60;;;3.70;83.60;;;;;;4954843;29;20419;-75
2022/01/08 02:41:26;;;;;;;2.20;1.50;;;3.80;83.80;;;;;;4960942;28;20510;-75
2022/01/08 02:43:52;;;;;;;2.00;1.60;;;3.80;83.70;;;;;;4956633;28;20343;-75
2022/01/08 02:46:22;;;;;;;2.90;1.53;;;3.90;83.70;;;;;;4954002;28;20463;-75
2022/01/08 02:48:47;;;;;;;1.93;1.50;;;3.90;83.40;;;;;;4964797;28;20536;-74
2022/01/08 02:51:13;;;;;;;5.83;1.70;;;3.90;83.10;;;;;;4960036;28;20517;-75
2022/01/08 02:53:39;;;;;;;7.93;2.00;;;4.00;82.70;;;;;;4955526;28;20207;-75
2022/01/08 02:56:05;;;;;;;2.13;1.73;;;4.00;82.50;;;;;;4955022;28;20202;-75
2022/01/08 02:58:31;;;;;;;2.00;1.70;;;4.00;82.40;;;;;;4954404;28;20432;-75
2022/01/08 03:00:57;;;;;;;3.73;1.60;;;4.10;82.40;;;;;;4960945;28;20202;-75
2022/01/08 03:03:23;;;;;;;4.13;1.60;;;4.10;82.40;;;;;;4954726;28;20425;-75
2022/01/08 03:05:49;;;;;;;2.77;1.67;;;4.10;82.80;;;;;;4961207;28;20491;-75
2022/01/08 03:08:15;;;;;;;1.90;1.50;;;4.00;83.60;;;;;;4957493;29;20215;-75
2022/01/08 03:10:41;;;;;;;1.40;1.30;;;4.10;83.80;;;;;;4954352;28;20478;-75
2022/01/08 03:13:07;;;;;;;1.97;1.50;;;4.10;84.30;;;;;;4958925;28;20423;-75
2022/01/08 03:15:35;;;;;;;2.87;1.60;;;4.10;84.60;;;;;;4951571;28;20255;-75
2022/01/08 03:18:03;;;;;;;4.15;1.90;;;4.00;85.00;;;;;;4959902;28;20930;-76
2022/01/08 03:20:30;;;;;;;2.20;1.43;;;4.00;85.60;;;;;;4958008;28;20191;-75
2022/01/08 03:23:02;;;;;;;7.40;1.80;;;4.00;86.30;;;;;;4952352;28;20434;-75
2022/01/08 03:25:29;;;;;;;2.27;1.80;;;4.00;87.10;;;;;;4955839;28;20443;-76
2022/01/08 03:27:55;;;;;;;4.43;2.20;;;3.90;87.80;;;;;;4953672;28;20467;-75
2022/01/08 03:30:22;;;;;;;2.90;1.77;;;3.90;88.60;;;;;;4963049;28;21264;-75
2022/01/08 03:32:48;;;;;;;2.30;1.57;;;3.90;89.20;;;;;;4953585;28;20192;-74
2022/01/08 03:35:14;;;;;;;3.00;2.00;;;3.80;89.90;;;;;;4957902;28;20914;-74
2022/01/08 03:37:40;;;;;;;3.03;2.20;;;3.80;90.20;;;;;;4955513;28;20423;-78
2022/01/08 03:40:07;;;;;;;2.60;1.93;;;3.80;90.60;;;;;;4953368;28;20423;-76
2022/01/08 03:42:33;;;;;;;3.63;1.90;;;3.70;91.00;;;;;;4956261;28;20191;-77
2022/01/08 03:44:59;;;;;;;3.85;1.90;;;3.60;91.50;;;;;;4953541;28;20202;-76
2022/01/08 03:49:53;;;;;;;4.82;2.20;;;3.50;92.20;;;;;;4953730;28;20187;-74
2022/01/08 03:52:20;;;;;;;5.90;2.58;;;3.50;92.50;;;;;;4961963;28;20190;-77
2022/01/08 03:54:45;;;;;;;3.13;2.40;;;3.50;92.90;;;;;;4960385;28;20282;-76
2022/01/08 03:57:11;;;;;;;4.50;2.50;;;3.50;93.00;;;;;;4953680;28;20184;-74
2022/01/08 03:59:37;;;;;;;4.00;2.57;;;3.40;93.40;;;;;;4955516;28;21080;-77
2022/01/08 04:02:03;;;;;;;2.83;2.03;;;3.40;93.60;;;;;;4955961;28;20215;-75
2022/01/08 04:04:29;;;;;;;4.85;3.05;;;3.30;93.80;;;;;;4961452;28;20231;-76
2022/01/08 04:06:55;;;;;;;4.57;2.73;;;3.30;94.20;;;;;;4955416;28;20207;-75
2022/01/08 04:09:20;;;;;;;5.73;2.80;;;3.20;94.60;;;;;;4952424;28;20227;-75
2022/01/08 04:11:46;;;;;;;3.97;2.53;;;3.10;94.80;;;;;;4954904;28;20194;-74
2022/01/08 04:14:14;;;;;;;3.97;3.03;;;3.10;94.90;;;;;;4952178;28;20214;-76
2022/01/08 04:16:44;;;;;;;4.93;3.03;;;3.10;95.00;;;;;;4951560;28;20188;-75
2022/01/08 04:19:10;;;;;;;6.80;3.17;;;3.10;94.90;;;;;;4952362;28;20215;-74
2022/01/08 04:24:07;;;;;;;5.77;3.50;;;3.20;94.80;;;;;;4952095;28;20231;-74
2022/01/08 04:26:32;;;;;;;5.43;2.80;;;3.20;94.60;;;;;;4958421;28;20191;-75
2022/01/08 04:28:58;;;;;;;6.13;3.20;;;3.30;94.30;;;;;;4953564;28;20246;-74
2022/01/08 04:31:25;;;;;;;5.20;3.00;;;3.30;94.20;;;;;;4961976;28;20423;-75
2022/01/08 04:33:52;;;;;;;6.13;3.35;;;3.30;94.10;;;;;;4953582;28;20443;-74
2022/01/08 04:36:19;;;;;;;3.85;2.60;;;3.30;94.10;;;;;;4956833;28;20647;-73
2022/01/08 04:38:45;;;;;;;3.78;2.80;;;3.40;94.10;;;;;;4956691;28;20211;-74
2022/01/08 04:41:10;;;;;;;4.93;2.63;;;3.40;94.10;;;;;;4955294;28;20183;-74
2022/01/08 04:43:37;;;;;;;5.77;3.57;;;3.40;94.20;;;;;;4956086;28;20214;-74
2022/01/08 04:46:04;;;;;;;4.05;3.10;;;3.40;94.30;;;;;;4956310;28;20184;-75
2022/01/08 04:48:30;;;;;;;6.13;3.10;;;3.30;94.70;;;;;;4953971;28;20533;-76
2022/01/08 04:50:56;;;;;;;5.03;3.03;;;3.20;95.00;;;;;;4957969;28;20427;-75
2022/01/08 04:53:22;;;;;;;3.08;2.35;;;3.10;95.30;;;;;;4959301;28;20187;-75
2022/01/08 04:55:48;;;;;;;4.63;2.67;;;3.00;95.60;;;;;;4961858;28;20213;-75
2022/01/08 04:58:14;;;;;;;4.70;2.70;;;3.00;96.00;;;;;;4959409;28;20190;-74
2022/01/08 05:00:41;;;;;;;4.57;2.90;;;2.90;96.30;;;;;;4957369;28;20466;-76
2022/01/08 05:03:06;;;;;;;4.35;2.92;;;2.90;96.50;;;;;;4959375;28;20195;-76
2022/01/08 05:05:32;;;;;;;3.90;2.57;;;2.90;96.70;;;;;;4958661;28;20210;-76
2022/01/08 05:07:58;;;;;;;3.90;2.60;;;2.80;96.90;;;;;;4960276;28;20211;-76
2022/01/08 05:10:24;;;;;;;5.60;3.27;;;2.70;97.10;;;;;;4961929;28;20342;-76
2022/01/08 05:12:50;;;;;;;3.50;2.50;;;2.70;97.30;;;;;;4959330;28;20263;-75
2022/01/08 05:15:17;;;;;;;4.05;2.40;;;2.60;97.50;;;;;;4955829;28;20203;-77
2022/01/08 05:17:45;;;;;;;5.22;3.20;;;2.60;97.70;;;;;;4956698;28;20203;-77
2022/01/08 05:20:13;;;;;;;5.18;2.75;;;2.50;97.80;;;;;;4961879;28;20235;-76
2022/01/08 05:22:52;;;;;;;4.68;2.35;;;2.50;98.00;;;;;;4959969;28;20200;-75
2022/01/08 05:25:22;;;;;;;4.20;2.45;;;2.50;98.20;;;;;;4954264;29;20227;-76
2022/01/08 05:27:48;;;;;;;3.50;2.63;;;2.50;98.30;;;;;;4957224;28;20778;-74
2022/01/08 05:30:17;;;;;;;3.53;2.70;;;2.50;98.50;;;;;;4955804;29;20180;-75
2022/01/08 05:32:43;;;;;;;4.47;2.55;;;2.40;98.60;;;;;;4955683;28;20596;-74
2022/01/08 05:35:09;;;;;;;3.40;2.40;;;2.40;98.70;;;;;;4961277;28;20266;-75
2022/01/08 05:37:35;;;;;;;3.63;2.10;;;2.50;98.80;;;;;;4955876;28;20526;-75
2022/01/08 05:40:01;;;;;;;5.68;3.00;;;2.40;98.80;;;;;;4955510;28;20195;-74
2022/01/08 05:42:27;;;;;;;3.90;2.33;;;2.50;98.90;;;;;;4954836;29;20191;-76
2022/01/08 05:44:53;;;;;;;3.37;2.30;;;2.60;99.00;;;;;;4953399;28;20450;-76
2022/01/08 05:47:21;;;;;;;4.13;2.53;;;2.50;99.00;;;;;;4960209;28;20192;-74
2022/01/08 05:49:47;;;;;;;3.40;2.35;;;2.60;99.00;;;;;;4956986;28;20196;-74
2022/01/08 05:52:12;;;;;;;5.37;1.90;;;2.50;99.00;;;;;;4954704;28;20195;-73
2022/01/08 05:54:38;;;;;;;4.03;1.70;;;2.60;99.20;;;;;;4954407;28;20469;-74
2022/01/08 05:57:04;;;;;;;3.10;1.80;;;2.60;99.00;;;;;;4952839;28;20192;-74
2022/01/08 05:59:30;;;;;;;1.35;1.10;;;2.60;99.00;;;;;;4958738;28;20239;-75
2022/01/08 06:01:56;;;;;;;2.33;1.40;;;2.60;98.80;;;;;;4962168;28;20631;-76
2022/01/08 06:04:23;;;;;;;3.80;1.70;;;2.60;98.50;;;;;;4960028;28;20294;-75
2022/01/08 06:06:48;;;;;;;1.30;1.20;;;2.60;98.40;;;;;;4956417;28;20576;-74
2022/01/08 06:09:15;;;;;;;2.10;1.40;;;2.70;98.10;;;;;;4955161;29;20314;-75
2022/01/08 06:11:41;;;;;;;6.22;1.00;;;2.60;97.70;;;;;;4962746;28;20651;-74
2022/01/08 06:14:06;;;;;;;1.23;1.00;;;2.60;97.50;;;;;;4957204;29;20266;-75
2022/01/08 06:16:37;;;;;;;1.67;0.90;;;2.60;96.60;;;;;;4955253;28;20184;-73
2022/01/08 06:19:12;;;;;;;2.70;1.20;;;2.60;96.30;;;;;;4954861;28;20478;-73
2022/01/08 06:21:38;;;;;;;1.98;1.10;;;2.60;96.20;;;;;;4954378;28;20234;-74
2022/01/08 06:24:05;;;;;;;1.30;1.10;;;2.60;96.20;;;;;;4955480;28;20561;-74
2022/01/08 06:26:31;;;;;;;1.10;1.05;;;2.50;95.90;;;;;;4956901;28;20194;-76
2022/01/08 06:28:57;;;;;;;1.17;1.00;;;2.50;95.90;;;;;;4961284;28;20211;-74
2022/01/08 06:31:24;;;;;;;0.90;0.87;;;2.40;95.70;;;;;;4961145;28;20523;-73
2022/01/08 06:33:51;;;;;;;1.00;0.90;;;2.40;95.60;;;;;;4958741;28;21025;-74
2022/01/08 06:36:18;;;;;;;1.83;1.10;;;2.40;95.10;;;;;;4962254;28;20533;-74
2022/01/08 06:38:45;;;;;;;2.47;1.00;;;2.40;94.80;;;;;;4953777;28;20280;-73
2022/01/08 06:41:10;;;;;;;2.13;1.10;;;2.40;94.90;;;;;;4951764;28;20663;-74
2022/01/08 06:43:36;;;;;;;1.23;1.20;;;2.50;95.10;;;;;;4953054;28;20661;-74
2022/01/08 06:46:02;;;;;;;1.40;1.20;;;2.40;95.00;;;;;;4951460;29;20211;-75
2022/01/08 06:48:28;;;;;;;6.73;2.40;;;2.40;95.10;;;;;;4951485;28;20219;-75
2022/01/08 06:50:54;;;;;;;1.33;0.90;;;2.40;95.10;;;;;;4952620;28;20235;-74
2022/01/08 06:53:19;;;;;;;1.23;1.17;;;2.40;94.80;;;;;;4953032;28;20239;-73
2022/01/08 06:55:45;;;;;;;1.50;1.00;;;2.50;94.90;;;;;;4952759;28;20235;-74
2022/01/08 06:58:11;;;;;;;1.60;1.10;;;2.50;94.80;;;;;;4952874;28;20200;-72
2022/01/08 07:00:37;;;;;;;2.73;1.40;;;2.40;94.40;;;;;;4952522;28;20230;-73
2022/01/08 07:03:03;;;;;;;2.87;1.40;;;2.40;94.10;;;;;;4951536;28;20913;-74
2022/01/08 07:05:29;;;;;;;1.10;0.90;;;2.40;94.20;;;;;;4958528;28;20215;-74
2022/01/08 07:07:54;;;;;;;2.70;1.30;;;2.40;94.10;;;;;;4953349;28;20464;-73
2022/01/08 07:10:20;;;;;;;2.50;1.20;;;2.40;94.00;;;;;;4959457;28;20293;-73
2022/01/08 07:12:46;;;;;;;2.03;1.50;;;2.40;94.00;;;;;;4956020;28;20188;-72
2022/01/08 07:15:12;;;;;;;2.17;1.47;;;2.50;93.90;;;;;;4953252;28;20703;-73
2022/01/08 07:17:39;;;;;;;1.50;1.40;;;2.40;93.70;;;;;;4951290;28;20563;-73
2022/01/08 07:20:06;;;;;;;1.60;1.40;;;2.40;93.50;;;;;;4959074;28;20184;-73
2022/01/08 07:22:31;;;;;;;2.15;1.50;;;2.50;93.70;;;;;;4959217;28;20196;-74
2022/01/08 07:24:57;;;;;;;2.27;1.50;;;2.40;93.80;;;;;;4961506;28;20231;-74
2022/01/08 07:27:23;;;;;;;2.10;1.80;;;2.30;93.90;;;;;;4955096;28;20191;-72
2022/01/08 07:29:49;;;;;;;2.97;1.67;;;2.20;94.30;;;;;;4958065;28;20184;-72
2022/01/08 07:32:14;;;;;;;5.73;2.30;;;2.20;94.70;;;;;;4960280;28;20191;-73
2022/01/08 07:34:40;;;;;;;3.70;2.20;;;2.20;94.90;;;;;;4955183;28;20239;-73
2022/01/08 07:37:06;;;;;;;3.37;2.00;;;2.20;95.20;;;;;;4953272;28;20195;-73
2022/01/08 07:39:31;;;;;;;4.20;2.30;;;2.20;95.10;;;;;;4953695;28;20663;-72
2022/01/08 07:41:57;;;;;;;2.50;2.00;;;2.20;95.20;;;;;;4955673;28;20195;-72
2022/01/08 07:44:23;;;;;;;3.37;1.90;;;2.30;95.30;;;;;;4963149;28;20214;-74
2022/01/08 07:46:49;;;;;;;3.23;2.10;;;2.20;95.20;;;;;;4957434;28;20191;-74
2022/01/08 07:49:14;;;;;;;2.83;1.80;;;2.20;95.10;;;;;;4955708;28;20207;-73
2022/01/08 07:51:40;;;;;;;4.70;2.30;;;2.30;95.10;;;;;;4954338;28;20607;-73
2022/01/08 07:54:06;;;;;;;2.83;2.03;;;2.30;94.90;;;;;;4961155;28;20565;-72
2022/01/08 07:56:34;;;;;;;3.30;2.38;;;2.30;94.80;;;;;;4957251;28;20187;-75
2022/01/08 07:59:00;;;;;;;3.53;2.10;;;2.40;95.00;;;;;;4953095;28;20191;-73
2022/01/08 08:01:26;;;;;;;3.27;2.07;;;2.40;95.00;;;;;;4959316;28;20269;-74
2022/01/08 08:03:52;;;;;;;4.27;2.30;;;2.30;95.00;;;;;;4956738;28;20458;-75
2022/01/08 08:06:18;;;;;;;5.43;2.50;;;2.40;94.90;;;;;;4952687;28;20188;-74
2022/01/08 08:08:44;;;;;;;4.93;2.30;;;2.40;94.80;;;;;;4953546;28;20509;-73
2022/01/08 08:11:10;;;;;;;4.97;2.50;;;2.40;94.70;;;;;;4953627;28;20176;-74
2022/01/08 08:13:36;;;;;;;5.93;2.97;;;2.50;94.60;;;;;;4960471;28;20312;-74
2022/01/08 08:16:02;;;;;;;6.40;2.53;;;2.50;94.50;;;;;;4951883;28;20215;-73
2022/01/08 08:18:28;;;;;;;4.97;2.60;;;2.40;94.40;;;;;;4959169;28;20183;-73
2022/01/08 08:20:54;;;;;;;8.20;3.35;;;2.50;94.40;;;;;;4952052;28;20212;-72
2022/01/08 08:23:19;;;;;;;2.80;2.07;;;2.50;94.30;;;;;;4956560;28;20215;-75
2022/01/08 08:25:45;;;;;;;4.50;3.03;;;2.50;94.00;;;;;;4951987;28;20187;-74
2022/01/08 08:28:11;;;;;;;3.50;2.60;;;2.50;93.70;;;;;;4953351;28;20211;-75
2022/01/08 08:30:37;;;;;;;4.43;2.80;;;2.50;93.40;;;;;;4951070;28;20199;-73
2022/01/08 08:33:04;;;;;;;5.72;2.60;;;2.60;93.20;;;;;;4951766;28;20222;-73
2022/01/08 08:35:30;;;;;;;7.38;2.90;;;2.70;92.70;;;;;;4951715;28;20262;-72
2022/01/08 08:37:56;;;;;;;3.55;2.22;;;2.70;92.00;;;;;;4955688;28;20190;-74
2022/01/08 08:40:22;;;;;;;6.43;2.92;;;2.70;91.60;;;;;;4956624;28;20195;-75
2022/01/08 08:42:48;;;;;;;4.20;2.03;;;2.80;91.20;;;;;;4952108;28;20196;-75
2022/01/08 08:45:14;;;;;;;6.43;1.90;;;2.80;90.70;;;;;;4959201;28;20251;-74
2022/01/08 08:47:41;;;;;;;3.20;2.10;;;2.80;90.50;;;;;;4951665;28;20223;-73
2022/01/08 08:50:12;;;;;;;2.85;2.20;;;2.90;90.30;;;;;;4951803;28;20223;-75
2022/01/08 08:52:38;;;;;;;4.00;2.15;;;2.80;89.90;;;;;;4959351;28;20191;-73
2022/01/08 08:55:05;;;;;;;3.05;1.90;;;2.80;89.30;;;;;;4952761;28;20229;-75
2022/01/08 08:57:31;;;;;;;5.70;1.60;;;2.90;89.20;;;;;;4953809;28;20191;-73
2022/01/08 08:59:57;;;;;;;3.80;1.70;;;3.00;89.20;;;;;;4956676;28;20188;-73
2022/01/08 09:02:22;;;;;;;4.50;2.43;;;3.00;88.70;;;;;;4951102;28;20251;-73
2022/01/08 09:04:50;;;;;;;4.80;1.97;;;3.10;88.60;;;;;;4958046;28;20888;-72
2022/01/08 09:07:15;;;;;;;3.97;1.70;;;3.10;88.70;;;;;;4957386;28;20430;-74
2022/01/08 09:09:41;;;;;;;5.13;2.10;;;3.10;88.70;;;;;;4953569;28;20568;-74
2022/01/08 09:12:07;;;;;;;5.93;2.13;;;3.10;88.70;;;;;;4958281;28;20303;-75
2022/01/08 09:14:33;;;;;;;4.70;2.15;;;3.10;88.00;;;;;;4951405;28;20325;-72
2022/01/08 09:17:03;;;;;;;3.30;2.13;;;3.20;88.40;;;;;;4952301;28;20690;-75
2022/01/08 09:19:29;;;;;;;2.80;1.63;;;3.10;88.30;;;;;;4952012;28;20187;-74
2022/01/08 09:21:55;;;;;;;2.10;1.60;;;3.10;88.30;;;;;;4953399;28;20434;-74
2022/01/08 09:24:22;;;;;;;4.18;1.60;;;3.10;88.00;;;;;;4954936;28;20274;-73
2022/01/08 09:26:48;;;;;;;3.05;2.05;;;3.10;87.40;;;;;;4952733;28;20210;-73
2022/01/08 09:29:15;;;;;;;2.65;2.25;;;3.10;88.10;;;;;;4953364;28;20207;-74
2022/01/08 09:31:41;;;;;;;3.60;2.33;;;3.00;88.60;;;;;;4952626;28;20191;-73
2022/01/08 09:34:07;;;;;;;3.33;2.40;;;3.00;88.70;;;;;;4955356;28;20374;-74
2022/01/08 09:36:37;;;;;;;2.95;2.10;;;3.00;88.90;;;;;;4957559;28;20195;-76
2022/01/08 09:39:03;;;;;;;2.78;1.90;;;2.90;88.60;;;;;;4956100;28;20523;-76
2022/01/08 09:41:29;;;;;;;5.35;2.80;;;3.00;89.30;;;;;;4957489;28;20220;-73
2022/01/08 09:43:55;;;;;;;3.73;2.40;;;3.00;89.30;;;;;;4964265;28;20599;-75
2022/01/08 09:46:21;;;;;;;6.73;2.50;;;3.00;88.90;;;;;;4960906;28;20187;-76
2022/01/08 09:48:48;;;;;;;3.13;2.33;;;3.10;88.70;;;;;;4954515;28;20207;-74
2022/01/08 09:51:15;;;;;;;4.67;2.47;;;3.10;87.80;;;;;;4958916;28;20851;-74
2022/01/08 09:53:41;;;;;;;3.17;2.17;;;3.10;87.30;;;;;;4961779;28;20523;-73
2022/01/08 09:56:06;;;;;;;4.60;2.50;;;3.10;86.00;;;;;;4953470;28;20306;-72
2022/01/08 09:58:33;;;;;;;8.43;1.93;;;3.10;86.30;;;;;;4953988;28;20192;-72
2022/01/08 10:00:59;;;;;;;4.43;2.17;;;3.10;86.20;;;;;;4960665;28;20459;-72
2022/01/08 10:03:31;;;;;;;14.43;2.58;;;3.00;86.00;;;;;;4958282;28;20538;-72
2022/01/08 10:06:00;;;;;;;4.05;1.90;;;3.10;85.60;;;;;;4954381;28;20243;-73
2022/01/08 10:08:29;;;;;;;4.45;2.05;;;3.10;85.50;;;;;;4957889;28;20225;-74
2022/01/08 10:10:57;;;;;;;5.10;2.72;;;3.20;85.00;;;;;;4945898;28;20259;-74
2022/01/08 10:13:33;;;;;;;7.50;2.50;;;3.30;84.90;;;;;;4952623;28;20220;-73
2022/01/08 10:18:45;;;;;;;5.23;2.50;;;3.30;83.60;;;;;;4962598;28;20434;-71
2022/01/08 10:21:23;;;;;;;5.93;2.57;;;3.30;83.40;;;;;;4955846;28;20522;-74
2022/01/08 10:23:57;;;;;;;3.27;2.40;;;3.50;83.80;;;;;;4953906;28;20954;-74
2022/01/08 10:26:30;;;;;;;3.47;3.00;;;3.60;83.80;;;;;;4952772;28;20427;-76
2022/01/08 10:28:58;;;;;;;5.10;2.60;;;3.70;82.80;;;;;;4953625;28;20467;-75
2022/01/08 10:31:29;;;;;;;5.23;2.27;;;3.70;81.90;;;;;;4953558;28;20423;-74
2022/01/08 10:34:01;;;;;;;2.67;2.20;;;3.70;81.90;;;;;;4953654;28;20526;-76
2022/01/08 10:36:33;;;;;;;4.93;2.10;;;3.80;81.90;;;;;;4953666;28;20424;-75
2022/01/08 10:39:01;;;;;;;6.63;2.90;;;3.80;81.70;;;;;;4953665;28;20427;-75
2022/01/08 10:41:28;;;;;;;6.27;2.57;;;3.70;80.90;;;;;;4952490;28;20526;-77
2022/01/08 10:44:11;;;;;;;4.83;2.47;;;3.60;80.30;;;;;;4954646;29;20447;-74
2022/01/08 10:46:37;;;;;;;6.03;2.30;;;3.70;81.10;;;;;;4956326;28;20851;-74
2022/01/08 10:49:04;;;;;;;4.07;2.50;;;3.80;79.90;;;;;;4962265;28;20471;-73
2022/01/08 10:51:38;;;;;;;4.70;2.20;;;3.80;79.60;;;;;;4950751;28;20415;-75
2022/01/08 10:54:16;;;;;;;3.33;2.07;;;3.80;78.40;;;;;;4943662;28;20525;-75
2022/01/08 10:56:48;;;;;;;8.63;2.00;;;3.70;78.30;;;;;;4958859;28;20433;-74
2022/01/08 10:59:19;;;;;;;4.22;2.08;;;3.70;79.00;;;;;;4956828;28;20696;-74
2022/01/08 11:01:50;;;;;;;8.53;2.40;;;3.70;78.40;;;;;;4959662;28;20188;-74
2022/01/08 11:04:38;;;;;;;5.20;2.47;;;3.70;79.00;;;;;;4957596;28;20534;-75
2022/01/08 11:07:10;;;;;;;3.30;2.13;;;3.70;79.00;;;;;;4945408;29;20514;-76
2022/01/08 11:09:38;;;;;;;7.00;1.97;;;3.80;79.50;;;;;;4955045;28;20463;-74
2022/01/08 11:12:07;;;;;;;6.30;2.83;;;3.90;78.70;;;;;;4956073;28;20444;-74
2022/01/08 11:15:24;;;;;;;5.53;2.23;;;3.80;76.80;;;;;;4952292;28;20447;-74
2022/01/08 11:17:32;;;;;;;7.70;2.63;;;3.80;77.40;;;;;;4950273;28;20415;-74
2022/01/08 11:20:17;;;;;;;4.67;2.40;;;3.80;77.70;;;;;;4952475;28;20435;-76
2022/01/08 11:22:50;;;;;;;6.23;2.40;;;3.80;77.60;;;;;;4947998;28;20454;-74
2022/01/08 11:25:33;;;;;;;5.40;2.13;;;3.70;77.00;;;;;;4959425;28;20962;-76
2022/01/08 11:28:07;;;;;;;4.30;2.23;;;3.70;75.70;;;;;;4958978;28;20495;-74
2022/01/08 11:30:37;;;;;;;3.10;1.85;;;3.70;75.70;;;;;;4953842;28;20552;-74
2022/01/08 11:33:10;;;;;;;4.65;2.30;;;3.70;75.70;;;;;;4961986;28;20547;-76
2022/01/08 11:35:38;;;;;;;4.63;1.97;;;3.80;74.90;;;;;;4958455;28;20246;-75
2022/01/08 11:38:07;;;;;;;9.37;2.40;;;3.80;74.60;;;;;;4961539;28;20562;-76
2022/01/08 11:40:37;;;;;;;3.40;2.00;;;3.80;74.60;;;;;;4961418;28;20481;-75
2022/01/08 11:43:04;;;;;;;3.03;1.90;;;3.70;75.10;;;;;;4961958;28;20419;-76
2022/01/08 11:45:55;;;;;;;2.80;1.73;;;3.80;75.80;;;;;;4964277;28;20442;-75
2022/01/08 11:48:35;;;;;;;8.25;2.00;;;3.90;75.50;;;;;;4958390;28;20223;-76
2022/01/08 11:51:04;;;;;;;10.30;2.25;;;4.00;75.80;;;;;;4945037;29;20194;-74
2022/01/08 11:53:51;;;;;;;6.80;2.00;;;4.10;75.80;;;;;;4956498;28;20191;-75
2022/01/08 11:56:30;;;;;;;10.03;2.60;;;4.10;74.30;;;;;;4951575;28;20989;-75
2022/01/08 11:59:15;;;;;;;5.93;2.10;;;4.20;74.60;;;;;;4952915;28;20897;-75
2022/01/08 12:01:44;;;;;;;3.33;2.03;;;4.20;74.00;;;;;;4952779;28;20446;-75
2022/01/08 12:04:32;;;;;;;5.30;2.20;;;4.10;73.90;;;;;;4952246;28;20527;-74
2022/01/08 12:06:59;;;;;;;4.73;2.00;;;4.10;74.80;;;;;;4954138;28;20838;-75
2022/01/08 12:09:27;;;;;;;3.80;2.30;;;4.20;75.20;;;;;;4952062;28;20471;-75
2022/01/08 12:12:04;;;;;;;16.60;2.80;;;4.20;75.20;;;;;;4968523;28;20419;-76
2022/01/08 12:14:45;;;;;;;10.20;2.07;;;4.30;75.10;;;;;;4957539;28;20449;-76
2022/01/08 12:17:15;;;;;;;4.50;1.80;;;4.30;74.60;;;;;;4959713;28;20813;-76
2022/01/08 12:19:52;;;;;;;3.00;2.00;;;4.20;75.20;;;;;;4957409;28;20419;-76
2022/01/08 12:22:20;;;;;;;4.50;2.10;;;4.10;76.20;;;;;;4955037;28;20494;-77
2022/01/08 12:24:53;;;;;;;2.10;1.90;;;4.20;76.50;;;;;;4960482;28;20439;-76
2022/01/08 12:27:34;;;;;;;4.70;2.00;;;4.20;76.70;;;;;;4957493;28;20427;-76
2022/01/08 12:30:03;;;;;;;2.20;1.77;;;4.30;76.50;;;;;;4949593;28;20424;-77
2022/01/08 12:35:19;;;;;;;4.73;2.20;;;4.30;77.00;;;;;;4952003;28;20511;-75
2022/01/08 12:37:46;;;;;;;4.50;2.27;;;4.30;76.70;;;;;;4952126;28;20439;-76
2022/01/08 12:40:32;;;;;;;4.93;2.20;;;4.10;76.80;;;;;;4958254;28;20423;-76
2022/01/08 12:42:58;;;;;;;3.47;2.03;;;4.00;77.60;;;;;;4954210;28;20993;-75
2022/01/08 12:45:34;;;;;;;4.70;2.70;;;3.90;78.40;;;;;;4952481;28;20447;-76
2022/01/08 12:48:00;;;;;;;4.00;2.37;;;3.90;79.20;;;;;;4950602;28;20463;-75
2022/01/08 12:50:26;;;;;;;5.23;2.63;;;3.80;79.50;;;;;;4951169;28;20502;-74
2022/01/08 12:53:21;;;;;;;3.77;2.30;;;4.00;79.60;;;;;;4951574;28;20427;-74
2022/01/08 12:55:56;;;;;;;5.93;2.70;;;4.10;78.90;;;;;;4953679;28;20270;-75
2022/01/08 12:58:31;;;;;;;5.37;2.53;;;4.40;78.60;;;;;;4951882;28;20454;-74
2022/01/08 13:01:02;;;;;;;3.73;2.20;;;4.60;77.60;;;;;;4949547;28;20433;-74
2022/01/08 13:03:37;;;;;;;5.60;2.60;;;4.70;75.50;;;;;;4958111;28;20429;-74
2022/01/08 13:06:21;;;;;;;5.93;2.57;;;4.80;75.10;;;;;;4959344;28;20425;-75
2022/01/08 13:08:49;;;;;;;4.70;2.13;;;4.80;74.50;;;;;;4953775;28;20514;-74
2022/01/08 13:11:17;;;;;;;3.70;2.10;;;4.80;74.30;;;;;;4957997;28;20427;-75
2022/01/08 13:13:43;;;;;;;5.40;2.73;;;4.90;73.60;;;;;;4960145;28;20524;-73
2022/01/08 13:16:19;;;;;;;3.67;2.30;;;4.90;73.70;;;;;;4956121;28;20815;-74
2022/01/08 13:19:10;;;;;;;2.30;2.10;;;4.80;73.60;;;;;;4962011;28;20225;-74
2022/01/08 13:21:42;;;;;;;4.00;1.90;;;4.70;73.30;;;;;;4947831;28;20485;-74
2022/01/08 13:24:15;;;;;;;4.13;2.07;;;4.60;73.30;;;;;;4953715;28;20871;-75
2022/01/08 13:26:43;;;;;;;3.13;2.03;;;4.60;73.00;;;;;;4962059;28;20430;-74
2022/01/08 13:29:28;;;;;;;6.63;2.40;;;4.50;73.20;;;;;;4954161;28;20470;-74
2022/01/08 13:31:59;;;;;;;7.53;2.30;;;4.40;73.50;;;;;;4946142;29;20513;-73